createdAt,value
2017-11-01T00:00:50.056Z,7.40
2017-11-01T00:03:17.531Z,7.67
2017-11-01T00:05:44.997Z,8.27
2017-11-01T00:08:12.526Z,8.50
2017-11-01T00:10:39.980Z,8.57
2017-11-01T00:13:07.451Z,8.47
2017-11-01T00:15:34.953Z,8.40
2017-11-01T00:18:02.414Z,8.50
2017-11-01T00:20:29.914Z,8.10
2017-11-01T00:22:57.394Z,9.10
2017-11-01T00:25:24.880Z,8.37
2017-11-01T00:27:52.408Z,8.10
2017-11-01T00:30:19.916Z,8.53
2017-11-01T00:32:47.382Z,8.90
2017-11-01T00:35:14.880Z,8.57
2017-11-01T00:37:42.404Z,8.90
2017-11-01T00:40:09.917Z,9.77
2017-11-01T00:42:37.372Z,8.47
2017-11-01T00:45:04.874Z,8.30
2017-11-01T00:47:32.344Z,9.67
2017-11-01T00:49:59.815Z,7.70
2017-11-01T00:52:27.318Z,9.57
2017-11-01T00:54:54.825Z,9.13
2017-11-01T00:57:22.290Z,8.40
2017-11-01T00:59:49.791Z,9.17
2017-11-01T01:02:17.290Z,8.93
2017-11-01T01:04:44.753Z,9.30
2017-11-01T01:07:12.252Z,8.90
2017-11-01T01:09:39.718Z,8.80
2017-11-01T01:12:07.187Z,8.07
2017-11-01T01:14:34.689Z,7.90
2017-11-01T01:17:02.142Z,8.17
2017-11-01T01:19:29.600Z,8.50
2017-11-01T01:21:57.089Z,8.80
2017-11-01T01:24:24.628Z,9.00
2017-11-01T01:26:52.091Z,8.83
2017-11-01T01:29:19.582Z,8.57
2017-11-01T01:31:47.051Z,9.33
2017-11-01T01:34:14.556Z,9.13
2017-11-01T01:36:42.060Z,9.63
2017-11-01T01:39:09.525Z,9.93
2017-11-01T01:41:37.004Z,10.00
2017-11-01T01:44:04.576Z,9.23
2017-11-01T01:46:32.030Z,9.50
2017-11-01T01:48:59.492Z,9.60
2017-11-01T01:51:27.102Z,10.13
2017-11-01T01:53:54.559Z,9.00
2017-11-01T01:56:22.013Z,9.70
2017-11-01T01:58:49.497Z,9.90
2017-11-01T02:01:16.968Z,9.23
2017-11-01T02:03:44.433Z,9.80
2017-11-01T02:06:12.025Z,10.83
2017-11-01T02:08:39.498Z,9.47
2017-11-01T02:11:06.981Z,10.00
2017-11-01T02:13:34.464Z,10.73
2017-11-01T02:16:01.945Z,10.47
2017-11-01T02:18:29.414Z,10.13
2017-11-01T02:20:56.912Z,10.60
2017-11-01T02:23:24.386Z,10.23
2017-11-01T02:25:51.963Z,11.23
2017-11-01T02:28:19.528Z,10.03
2017-11-01T02:30:46.987Z,11.10
2017-11-01T02:33:14.488Z,10.80
2017-11-01T02:35:42.009Z,10.80
2017-11-01T02:38:09.481Z,10.40
2017-11-01T02:40:36.984Z,11.83
2017-11-01T02:43:04.569Z,10.73
2017-11-01T02:45:32.046Z,10.40
2017-11-01T02:47:59.542Z,10.13
2017-11-01T02:50:27.046Z,11.37
2017-11-01T02:52:54.558Z,10.93
2017-11-01T02:55:22.037Z,11.30
2017-11-01T02:57:49.673Z,11.40
2017-11-01T03:00:17.193Z,11.97
2017-11-01T03:02:44.674Z,10.80
2017-11-01T03:05:12.175Z,10.80
2017-11-01T03:07:39.663Z,11.93
2017-11-01T03:10:07.135Z,11.37
2017-11-01T03:12:34.621Z,12.80
2017-11-01T03:15:02.101Z,12.03
2017-11-01T03:17:29.620Z,11.10
2017-11-01T03:19:57.126Z,12.70
2017-11-01T03:22:24.614Z,11.70
2017-11-01T03:24:52.087Z,12.80
2017-11-01T03:27:19.589Z,10.70
2017-11-01T03:29:47.069Z,11.10
2017-11-01T03:32:14.685Z,11.27
2017-11-01T03:34:42.193Z,12.23
2017-11-01T03:37:09.683Z,10.93
2017-11-01T03:39:37.172Z,11.50
2017-11-01T03:42:04.708Z,11.73
2017-11-01T03:44:32.201Z,10.90
2017-11-01T03:46:59.701Z,10.33
2017-11-01T03:49:27.183Z,11.20
2017-11-01T03:51:54.676Z,13.13
2017-11-01T03:54:22.168Z,11.63
2017-11-01T03:56:49.689Z,13.70
2017-11-01T03:59:17.164Z,12.47
2017-11-01T04:01:44.681Z,12.30
2017-11-01T04:04:12.152Z,11.63
2017-11-01T04:06:39.668Z,13.53
2017-11-01T04:09:07.146Z,13.20
2017-11-01T04:11:34.660Z,13.27
2017-11-01T04:14:02.127Z,13.30
2017-11-01T04:16:29.598Z,12.80
2017-11-01T04:19:02.639Z,13.83
2017-11-01T04:21:30.132Z,14.27
2017-11-01T04:23:57.607Z,14.20
2017-11-01T04:26:25.084Z,13.10
2017-11-01T04:28:52.563Z,14.93
2017-11-01T04:31:20.043Z,14.13
2017-11-01T04:33:47.546Z,13.10
2017-11-01T04:36:15.037Z,13.73
2017-11-01T04:38:42.506Z,13.60
2017-11-01T04:41:10.013Z,13.70
2017-11-01T04:43:37.497Z,13.43
2017-11-01T04:46:05.070Z,13.47
2017-11-01T04:48:32.570Z,13.10
2017-11-01T04:51:00.069Z,14.30
2017-11-01T04:53:27.556Z,14.37
2017-11-01T04:55:55.042Z,15.00
2017-11-01T04:58:22.540Z,14.50
2017-11-01T05:00:50.056Z,15.03
2017-11-01T05:03:18.380Z,15.30
2017-11-01T05:05:45.901Z,15.00
2017-11-01T05:11:09.694Z,15.53
2017-11-01T05:13:44.771Z,14.97
2017-11-01T05:16:14.995Z,15.20
2017-11-01T05:18:42.494Z,14.90
2017-11-01T05:21:10.008Z,15.50
2017-11-01T05:23:37.466Z,15.50
2017-11-01T05:26:07.694Z,15.80
2017-11-01T05:28:35.188Z,14.40
2017-11-01T05:31:02.674Z,14.93
2017-11-01T05:33:30.166Z,13.90
2017-11-01T05:35:57.673Z,15.43
2017-11-01T05:38:25.167Z,14.87
2017-11-01T05:40:52.654Z,14.77
2017-11-01T05:43:20.164Z,15.57
2017-11-01T05:45:47.648Z,16.20
2017-11-01T05:48:15.143Z,14.90
2017-11-01T05:50:42.631Z,14.30
2017-11-01T05:53:10.105Z,14.47
2017-11-01T05:55:37.604Z,14.30
2017-11-01T05:58:07.580Z,13.30
2017-11-01T06:00:35.060Z,14.50
2017-11-01T06:03:02.599Z,14.60
2017-11-01T06:05:30.165Z,13.53
2017-11-01T06:07:57.658Z,14.20
2017-11-01T06:10:25.130Z,14.53
2017-11-01T06:12:52.612Z,14.00
2017-11-01T06:15:20.085Z,14.43
2017-11-01T06:17:47.571Z,15.37
2017-11-01T06:20:15.416Z,13.10
2017-11-01T06:22:42.904Z,14.80
2017-11-01T06:25:10.390Z,14.33
2017-11-01T06:27:37.889Z,13.70
2017-11-01T06:30:05.436Z,15.30
2017-11-01T06:32:32.923Z,17.43
2017-11-01T06:35:00.413Z,14.70
2017-11-01T06:37:27.916Z,15.17
2017-11-01T06:39:55.474Z,14.93
2017-11-01T06:42:22.957Z,14.63
2017-11-01T06:44:50.415Z,13.40
2017-11-01T06:47:17.887Z,12.30
2017-11-01T06:49:45.413Z,12.30
2017-11-01T06:52:12.918Z,13.37
2017-11-01T06:54:40.415Z,13.37
2017-11-01T06:57:07.899Z,13.47
2017-11-01T06:59:35.377Z,12.37
2017-11-01T07:02:02.837Z,12.20
2017-11-01T07:04:30.359Z,12.13
2017-11-01T07:07:00.857Z,12.40
2017-11-01T07:09:28.329Z,11.90
2017-11-01T07:11:55.801Z,12.80
2017-11-01T07:14:23.257Z,11.90
2017-11-01T07:16:50.739Z,11.40
2017-11-01T07:19:18.219Z,11.87
2017-11-01T07:21:45.692Z,11.53
2017-11-01T07:24:13.220Z,10.37
2017-11-01T07:26:40.708Z,11.40
2017-11-01T07:29:08.175Z,11.40
2017-11-01T07:31:35.716Z,10.77
2017-11-01T07:34:03.372Z,10.47
2017-11-01T07:36:30.843Z,11.20
2017-11-01T07:38:58.308Z,11.90
2017-11-01T07:41:25.812Z,10.70
2017-11-01T07:43:53.289Z,11.00
2017-11-01T07:46:20.777Z,10.47
2017-11-01T07:48:48.257Z,10.53
2017-11-01T07:51:15.772Z,9.17
2017-11-01T07:53:43.236Z,9.47
2017-11-01T07:56:10.753Z,10.37
2017-11-01T07:58:38.239Z,9.70
2017-11-01T08:01:05.700Z,10.30
2017-11-01T08:03:33.221Z,11.10
2017-11-01T08:06:00.692Z,12.80
2017-11-01T08:08:28.145Z,9.67
2017-11-01T08:10:55.638Z,10.47
2017-11-01T08:13:23.102Z,8.87
2017-11-01T08:15:50.787Z,10.13
2017-11-01T08:18:18.274Z,8.57
2017-11-01T08:20:45.782Z,8.83
2017-11-01T08:23:13.281Z,9.27
2017-11-01T08:25:40.841Z,9.67
2017-11-01T08:28:08.318Z,8.97
2017-11-01T08:30:35.796Z,8.70
2017-11-01T08:33:03.287Z,8.10
2017-11-01T08:35:30.756Z,10.63
2017-11-01T08:37:58.242Z,10.40
2017-11-01T08:40:26.782Z,10.50
2017-11-01T08:42:54.268Z,9.27
2017-11-01T08:45:21.729Z,9.53
2017-11-01T08:47:49.289Z,9.57
2017-11-01T08:50:16.804Z,10.13
2017-11-01T08:52:44.273Z,9.53
2017-11-01T08:55:11.836Z,10.10
2017-11-01T08:57:39.328Z,8.20
2017-11-01T09:00:06.875Z,9.90
2017-11-01T09:02:34.390Z,8.83
2017-11-01T09:05:01.898Z,8.87
2017-11-01T09:07:29.395Z,8.37
2017-11-01T09:09:57.267Z,9.37
2017-11-01T09:17:28.286Z,9.53
2017-11-01T09:27:33.070Z,10.10
2017-11-01T09:30:04.200Z,8.50
2017-11-01T09:32:32.143Z,7.87
2017-11-01T09:34:59.864Z,9.40
2017-11-01T09:37:28.377Z,7.63
2017-11-01T09:39:56.296Z,9.43
2017-11-01T09:42:24.014Z,9.40
2017-11-01T09:44:52.010Z,7.67
2017-11-01T09:47:19.577Z,8.77
2017-11-01T09:49:48.883Z,8.70
2017-11-01T09:52:16.514Z,8.80
2017-11-01T09:54:44.034Z,7.50
2017-11-01T09:57:11.526Z,8.60
2017-11-01T09:59:39.027Z,9.00
2017-11-01T10:02:06.523Z,8.93
2017-11-01T10:04:34.553Z,8.70
2017-11-01T10:07:04.865Z,8.30
2017-11-01T10:09:32.486Z,8.10
2017-11-01T10:12:00.314Z,9.03
2017-11-01T10:14:28.247Z,8.80
2017-11-01T10:16:57.239Z,8.33
2017-11-01T10:19:25.224Z,8.10
2017-11-01T10:21:58.073Z,8.20
2017-11-01T10:24:25.565Z,8.10
2017-11-01T10:26:55.001Z,8.47
2017-11-01T10:31:54.154Z,8.37
2017-11-01T10:34:21.631Z,8.27
2017-11-01T10:36:49.132Z,8.10
2017-11-01T10:39:16.630Z,8.23
2017-11-01T10:41:46.972Z,7.73
2017-11-01T10:44:14.715Z,7.07
2017-11-01T10:46:43.448Z,7.03
2017-11-01T10:49:14.878Z,8.10
2017-11-01T10:51:43.169Z,7.33
2017-11-01T10:54:10.927Z,7.67
2017-11-01T10:56:42.553Z,7.57
2017-11-01T10:59:10.226Z,7.90
2017-11-01T11:01:38.785Z,7.23
2017-11-01T11:04:06.549Z,7.63
2017-11-01T11:09:17.289Z,7.00
2017-11-01T11:30:25.304Z,7.37
2017-11-01T11:32:56.573Z,8.87
2017-11-01T11:40:36.645Z,7.37
2017-11-01T11:43:04.331Z,7.00
2017-11-01T11:45:31.900Z,6.90
2017-11-01T11:47:59.403Z,7.63
2017-11-01T11:50:28.764Z,7.57
2017-11-01T12:11:57.452Z,6.03
2017-11-01T12:14:25.205Z,6.30
2017-11-01T12:16:52.942Z,6.60
2017-11-01T12:19:20.774Z,6.73
2017-11-01T12:21:49.524Z,6.20
2017-11-01T12:24:17.328Z,6.90
2017-11-01T12:26:46.188Z,6.70
2017-11-01T12:29:14.870Z,5.20
2017-11-01T12:31:42.969Z,6.73
2017-11-01T12:34:10.952Z,6.23
2017-11-01T12:36:39.725Z,6.60
2017-11-01T12:41:47.463Z,6.80
2017-11-01T12:44:15.483Z,6.90
2017-11-01T12:46:43.103Z,6.50
2017-11-01T12:49:11.289Z,6.33
2017-11-01T12:51:39.367Z,6.23
2017-11-01T12:54:07.452Z,5.57
2017-11-01T12:56:35.844Z,4.97
2017-11-01T12:59:03.558Z,5.03
2017-11-01T13:01:31.227Z,5.67
2017-11-01T13:09:04.182Z,5.67
2017-11-01T13:11:32.089Z,5.20
2017-11-01T13:14:00.121Z,5.77
2017-11-01T13:16:32.432Z,6.20
2017-11-01T13:19:00.240Z,7.27
2017-11-01T13:21:28.243Z,6.13
2017-11-01T13:23:56.286Z,6.07
2017-11-01T13:28:56.522Z,4.30
2017-11-01T13:31:24.797Z,3.93
2017-11-01T13:33:52.898Z,4.63
2017-11-01T13:36:21.294Z,3.80
2017-11-01T13:41:24.999Z,3.80
2017-11-01T13:43:52.723Z,4.07
2017-11-01T13:48:53.359Z,4.63
2017-11-01T13:51:25.055Z,4.57
2017-11-01T13:53:53.658Z,4.67
2017-11-01T13:56:21.483Z,4.40
2017-11-01T13:58:49.632Z,5.60
2017-11-01T14:01:17.706Z,4.80
2017-11-01T14:03:45.680Z,4.60
2017-11-01T14:06:13.971Z,5.60
2017-11-01T14:08:41.758Z,4.80
2017-11-01T14:11:09.386Z,4.93
2017-11-01T14:13:37.090Z,4.60
2017-11-01T14:16:06.504Z,5.40
2017-11-01T14:18:34.061Z,5.30
2017-11-01T14:21:01.805Z,5.57
2017-11-01T14:23:30.278Z,5.03
2017-11-01T14:25:58.336Z,5.60
2017-11-01T14:28:25.836Z,4.70
2017-11-01T14:30:53.823Z,5.10
2017-11-01T14:33:21.362Z,4.90
2017-11-01T14:35:51.273Z,4.60
2017-11-01T14:38:18.978Z,4.90
2017-11-01T14:40:47.420Z,4.30
2017-11-01T14:43:15.262Z,3.90
2017-11-01T14:45:43.379Z,3.80
2017-11-01T14:50:43.265Z,4.57
2017-11-01T14:53:11.234Z,4.17
2017-11-01T14:55:39.229Z,4.37
2017-11-01T14:58:07.619Z,4.00
2017-11-01T15:00:35.474Z,3.83
2017-11-01T15:03:03.182Z,6.60
2017-11-01T15:05:30.714Z,4.60
2017-11-01T15:07:58.260Z,5.70
2017-11-01T15:10:26.138Z,4.40
2017-11-01T15:12:53.675Z,5.30
2017-11-01T15:15:24.911Z,5.10
2017-11-01T15:17:52.702Z,5.20
2017-11-01T15:20:20.219Z,6.57
2017-11-01T15:22:48.358Z,6.00
2017-11-01T15:25:16.331Z,4.70
2017-11-01T15:27:44.371Z,5.20
2017-11-01T15:30:12.923Z,4.50
2017-11-01T15:32:40.743Z,4.80
2017-11-01T15:35:09.066Z,5.10
2017-11-01T15:37:37.369Z,4.37
2017-11-01T15:40:05.586Z,5.47
2017-11-01T15:42:33.267Z,4.47
2017-11-01T15:45:00.973Z,5.00
2017-11-01T15:47:28.622Z,4.70
2017-11-01T15:49:57.114Z,4.27
2017-11-01T15:52:25.253Z,4.33
2017-11-01T15:54:52.842Z,4.10
2017-11-01T15:57:21.343Z,4.13
2017-11-01T15:59:49.454Z,4.80
2017-11-01T16:02:17.475Z,4.77
2017-11-01T16:07:17.647Z,3.60
2017-11-01T16:09:48.435Z,4.10
2017-11-01T16:24:34.865Z,6.40
2017-11-01T16:27:02.572Z,3.60
2017-11-01T16:29:34.466Z,3.87
2017-11-01T16:32:03.692Z,4.87
2017-11-01T16:59:35.976Z,3.23
2017-11-01T17:02:13.104Z,4.20
2017-11-01T17:04:44.260Z,3.60
2017-11-01T17:20:17.346Z,3.30
2017-11-01T17:25:59.954Z,5.00
2017-11-01T17:28:32.526Z,3.83
2017-11-01T17:31:00.068Z,3.27
2017-11-01T17:33:28.557Z,4.47
2017-11-01T17:38:34.158Z,2.83
2017-11-01T17:41:02.780Z,3.50
2017-11-01T17:46:05.551Z,2.90
2017-11-01T17:48:33.097Z,3.73
2017-11-01T17:51:00.836Z,3.13
2017-11-01T17:58:45.471Z,3.00
2017-11-01T18:01:15.944Z,3.10
2017-11-01T18:06:35.472Z,3.77
2017-11-01T18:22:06.530Z,3.93
2017-11-01T18:24:34.029Z,2.03
2017-11-01T18:27:01.715Z,2.73
2017-11-01T18:29:35.742Z,2.93
2017-11-01T18:32:07.406Z,2.33
2017-11-01T18:34:35.003Z,2.93
2017-11-01T18:39:47.824Z,16.77
2017-11-01T18:42:25.325Z,22.07
2017-11-01T18:44:56.843Z,7.47
2017-11-01T18:47:24.423Z,5.07
2017-11-01T18:49:53.079Z,3.03
2017-11-01T18:52:20.627Z,6.33
2017-11-01T18:54:48.196Z,6.20
2017-11-01T18:57:16.217Z,14.63
2017-11-01T18:59:44.697Z,3.13
2017-11-01T19:02:12.409Z,3.47
2017-11-01T19:04:40.129Z,4.27
2017-11-01T19:07:07.739Z,5.60
2017-11-01T19:09:41.074Z,4.87
2017-11-01T19:12:08.649Z,3.97
2017-11-01T19:14:36.169Z,4.27
2017-11-01T19:17:03.728Z,2.90
2017-11-01T19:19:33.118Z,2.70
2017-11-01T19:22:00.691Z,2.83
2017-11-01T19:24:28.481Z,3.70
2017-11-01T19:26:56.597Z,2.80
2017-11-01T19:29:24.414Z,2.87
2017-11-01T19:31:55.190Z,2.87
2017-11-01T19:34:23.014Z,3.07
2017-11-01T19:36:57.677Z,4.97
2017-11-01T19:39:25.194Z,2.50
2017-11-01T19:41:53.312Z,2.63
2017-11-01T19:47:19.700Z,3.40
2017-11-01T19:49:49.459Z,2.50
2017-11-01T19:52:17.028Z,2.93
2017-11-01T19:54:45.699Z,3.37
2017-11-01T19:57:14.189Z,3.57
2017-11-01T19:59:41.712Z,2.87
2017-11-01T20:02:09.236Z,3.00
2017-11-01T20:04:36.719Z,2.30
2017-11-01T20:07:04.252Z,2.30
2017-11-01T20:09:31.749Z,2.63
2017-11-01T20:11:59.253Z,3.10
2017-11-01T20:14:26.798Z,2.93
2017-11-01T20:16:54.262Z,2.50
2017-11-01T20:19:21.776Z,2.70
2017-11-01T20:21:49.280Z,1.70
2017-11-01T20:24:16.743Z,2.80
2017-11-01T20:26:44.219Z,3.30
2017-11-01T20:29:11.692Z,2.60
2017-11-01T20:31:39.706Z,2.23
2017-11-01T20:34:07.287Z,2.63
2017-11-01T20:36:34.809Z,2.07
2017-11-01T20:39:02.323Z,2.20
2017-11-01T20:41:30.242Z,2.30
2017-11-01T20:43:57.762Z,3.00
2017-11-01T20:46:25.271Z,2.80
2017-11-01T20:48:52.772Z,2.97
2017-11-01T20:51:20.648Z,2.57
2017-11-01T20:53:48.257Z,2.70
2017-11-01T20:56:15.914Z,2.33
2017-11-01T20:58:43.409Z,2.73
2017-11-01T21:01:11.226Z,2.53
2017-11-01T21:03:38.761Z,3.00
2017-11-01T21:06:06.295Z,2.73
2017-11-01T21:08:33.814Z,2.60
2017-11-01T21:11:01.341Z,2.90
2017-11-01T21:13:30.990Z,2.57
2017-11-01T21:15:58.470Z,3.07
2017-11-01T21:18:25.993Z,2.37
2017-11-01T21:20:54.339Z,2.90
2017-11-01T21:23:21.908Z,2.90
2017-11-01T21:28:23.883Z,2.60
2017-11-01T21:30:51.593Z,2.63
2017-11-01T21:33:19.239Z,2.43
2017-11-01T21:35:46.732Z,2.70
2017-11-01T21:38:14.288Z,2.30
2017-11-01T21:40:42.156Z,2.50
2017-11-01T21:43:09.651Z,2.70
2017-11-01T21:45:37.378Z,2.80
2017-11-01T21:48:05.095Z,3.70
2017-11-01T21:50:32.617Z,2.63
2017-11-01T21:53:00.191Z,3.00
2017-11-01T21:55:27.722Z,2.80
2017-11-01T21:57:55.801Z,3.30
2017-11-01T22:00:23.988Z,2.63
2017-11-01T22:02:51.463Z,3.20
2017-11-01T22:05:19.855Z,3.30
2017-11-01T22:07:47.443Z,2.60
2017-11-01T22:10:14.910Z,3.00
2017-11-01T22:12:42.890Z,2.20
2017-11-01T22:15:12.062Z,2.90
2017-11-01T22:17:40.021Z,2.07
2017-11-01T22:20:07.623Z,2.40
2017-11-01T22:22:35.380Z,2.70
2017-11-01T22:25:02.866Z,2.77
2017-11-01T22:27:30.328Z,2.13
2017-11-01T22:29:57.839Z,2.73
2017-11-01T22:32:26.869Z,2.10
2017-11-01T22:34:54.553Z,3.00
2017-11-01T22:37:22.550Z,2.50
2017-11-01T22:39:50.797Z,2.60
2017-11-01T22:42:18.577Z,2.27
2017-11-01T22:44:46.108Z,2.80
2017-11-01T22:47:15.487Z,2.43
2017-11-01T22:49:43.017Z,1.97
2017-11-01T22:52:10.522Z,2.80
2017-11-01T22:54:38.021Z,2.83
2017-11-01T22:57:05.484Z,2.20
2017-11-01T22:59:33.003Z,2.77
2017-11-01T23:02:00.518Z,2.40
2017-11-01T23:04:28.048Z,3.00
2017-11-01T23:06:59.531Z,3.30
2017-11-01T23:09:27.533Z,3.30
2017-11-01T23:11:55.043Z,2.57
2017-11-01T23:14:22.777Z,2.90
2017-11-01T23:16:50.252Z,2.53
2017-11-01T23:19:17.740Z,3.03
2017-11-01T23:21:45.205Z,2.93
2017-11-01T23:24:12.695Z,3.67
2017-11-01T23:26:40.185Z,3.20
2017-11-01T23:29:07.666Z,3.50
2017-11-01T23:31:35.128Z,2.63
2017-11-01T23:34:02.604Z,2.90
2017-11-01T23:36:30.086Z,3.30
2017-11-01T23:38:57.569Z,3.00
2017-11-01T23:41:25.052Z,3.40
2017-11-01T23:43:52.517Z,3.40
2017-11-01T23:46:19.984Z,3.80
2017-11-01T23:48:47.436Z,3.20
2017-11-01T23:51:14.909Z,3.80
2017-11-01T23:53:42.365Z,2.80
2017-11-01T23:56:09.840Z,2.87
2017-11-01T23:58:37.355Z,3.20
